sensor_id;sensor_type;location;lat;lon;timestamp;P1;durP1;ratioP1;P2;durP2;ratioP2
59587;SDS011;45412;54.472;18.464;2022-08-04T00:03:21;8.60;;;3.30;;
59587;SDS011;45412;54.472;18.464;2022-08-04T00:12:50;11.00;;;3.40;;
59587;SDS011;45412;54.472;18.464;2022-08-04T00:15:41;10.60;;;3.70;;
59587;SDS011;45412;54.472;18.464;2022-08-04T00:18:41;11.80;;;3.50;;
59587;SDS011;45412;54.472;18.464;2022-08-04T00:21:46;9.50;;;3.50;;
59587;SDS011;45412;54.472;18.464;2022-08-04T00:24:38;10.00;;;3.20;;
59587;SDS011;45412;54.472;18.464;2022-08-04T00:27:29;9.90;;;3.30;;
59587;SDS011;45412;54.472;18.464;2022-08-04T00:30:17;9.20;;;3.30;;
59587;SDS011;45412;54.472;18.464;2022-08-04T00:33:05;8.80;;;3.50;;
59587;SDS011;45412;54.472;18.464;2022-08-04T00:35:54;7.20;;;2.90;;
59587;SDS011;45412;54.472;18.464;2022-08-04T00:38:44;7.20;;;3.00;;
59587;SDS011;45412;54.472;18.464;2022-08-04T00:41:58;8.40;;;2.90;;
59587;SDS011;45412;54.472;18.464;2022-08-04T00:48:09;10.20;;;2.90;;
59587;SDS011;45412;54.472;18.464;2022-08-04T00:51:46;6.00;;;2.50;;
59587;SDS011;45412;54.472;18.464;2022-08-04T01:01:42;9.50;;;3.10;;
59587;SDS011;45412;54.472;18.464;2022-08-04T01:05:04;8.70;;;3.10;;
59587;SDS011;45412;54.472;18.464;2022-08-04T01:15:05;10.50;;;3.10;;
59587;SDS011;45412;54.472;18.464;2022-08-04T01:18:07;6.50;;;2.60;;
59587;SDS011;45412;54.472;18.464;2022-08-04T01:24:23;8.40;;;2.70;;
59587;SDS011;45412;54.472;18.464;2022-08-04T01:30:59;7.80;;;2.80;;
59587;SDS011;45412;54.472;18.464;2022-08-04T01:33:59;12.00;;;3.10;;
59587;SDS011;45412;54.472;18.464;2022-08-04T01:40:39;7.90;;;3.20;;
59587;SDS011;45412;54.472;18.464;2022-08-04T01:43:29;7.40;;;3.10;;
59587;SDS011;45412;54.472;18.464;2022-08-04T01:46:20;7.50;;;3.00;;
59587;SDS011;45412;54.472;18.464;2022-08-04T01:49:10;7.90;;;3.00;;
59587;SDS011;45412;54.472;18.464;2022-08-04T01:51:59;7.40;;;2.60;;
59587;SDS011;45412;54.472;18.464;2022-08-04T01:54:49;8.50;;;2.90;;
59587;SDS011;45412;54.472;18.464;2022-08-04T01:57:43;8.20;;;3.20;;
59587;SDS011;45412;54.472;18.464;2022-08-04T02:00:36;9.60;;;3.00;;
59587;SDS011;45412;54.472;18.464;2022-08-04T02:03:33;8.50;;;2.80;;
59587;SDS011;45412;54.472;18.464;2022-08-04T02:10:06;8.20;;;3.10;;
59587;SDS011;45412;54.472;18.464;2022-08-04T02:13:09;8.40;;;2.70;;
59587;SDS011;45412;54.472;18.464;2022-08-04T02:22:16;7.20;;;3.30;;
59587;SDS011;45412;54.472;18.464;2022-08-04T02:25:07;7.60;;;3.30;;
59587;SDS011;45412;54.472;18.464;2022-08-04T02:31:03;7.90;;;3.40;;
59587;SDS011;45412;54.472;18.464;2022-08-04T02:38:00;11.20;;;3.40;;
59587;SDS011;45412;54.472;18.464;2022-08-04T02:40:58;8.60;;;3.20;;
59587;SDS011;45412;54.472;18.464;2022-08-04T02:43:48;7.70;;;3.30;;
59587;SDS011;45412;54.472;18.464;2022-08-04T02:46:40;8.90;;;3.10;;
59587;SDS011;45412;54.472;18.464;2022-08-04T02:49:28;8.90;;;3.30;;
59587;SDS011;45412;54.472;18.464;2022-08-04T02:52:25;7.70;;;3.30;;
59587;SDS011;45412;54.472;18.464;2022-08-04T02:55:14;7.00;;;3.10;;
59587;SDS011;45412;54.472;18.464;2022-08-04T02:58:04;7.20;;;3.20;;
59587;SDS011;45412;54.472;18.464;2022-08-04T03:00:54;8.90;;;3.10;;
59587;SDS011;45412;54.472;18.464;2022-08-04T03:47:27;8.30;;;3.50;;
59587;SDS011;45412;54.472;18.464;2022-08-04T03:54:41;10.40;;;3.70;;
59587;SDS011;45412;54.472;18.464;2022-08-04T03:58:08;7.90;;;3.50;;
59587;SDS011;45412;54.472;18.464;2022-08-04T04:08:23;11.00;;;3.90;;
59587;SDS011;45412;54.472;18.464;2022-08-04T04:32:04;10.00;;;4.30;;
59587;SDS011;45412;54.472;18.464;2022-08-04T04:38:29;10.50;;;4.40;;
59587;SDS011;45412;54.472;18.464;2022-08-04T04:41:35;11.90;;;4.40;;
59587;SDS011;45412;54.472;18.464;2022-08-04T04:44:57;14.00;;;4.90;;
59587;SDS011;45412;54.472;18.464;2022-08-04T04:51:57;9.30;;;4.10;;
59587;SDS011;45412;54.472;18.464;2022-08-04T04:55:18;11.20;;;4.70;;
59587;SDS011;45412;54.472;18.464;2022-08-04T04:58:13;10.50;;;4.20;;
59587;SDS011;45412;54.472;18.464;2022-08-04T05:14:33;15.20;;;4.80;;
59587;SDS011;45412;54.472;18.464;2022-08-04T05:17:42;17.00;;;5.00;;
59587;SDS011;45412;54.472;18.464;2022-08-04T05:20:40;12.10;;;4.50;;
59587;SDS011;45412;54.472;18.464;2022-08-04T05:23:30;27.50;;;5.30;;
59587;SDS011;45412;54.472;18.464;2022-08-04T05:26:26;12.10;;;4.70;;
59587;SDS011;45412;54.472;18.464;2022-08-04T05:29:27;12.90;;;4.40;;
59587;SDS011;45412;54.472;18.464;2022-08-04T05:32:22;17.60;;;4.70;;
59587;SDS011;45412;54.472;18.464;2022-08-04T05:35:19;10.40;;;4.30;;
59587;SDS011;45412;54.472;18.464;2022-08-04T05:38:35;10.80;;;3.70;;
59587;SDS011;45412;54.472;18.464;2022-08-04T05:41:27;11.30;;;3.50;;
59587;SDS011;45412;54.472;18.464;2022-08-04T05:44:32;15.60;;;4.30;;
59587;SDS011;45412;54.472;18.464;2022-08-04T05:47:23;14.60;;;3.70;;
59587;SDS011;45412;54.472;18.464;2022-08-04T05:50:11;14.30;;;3.80;;
59587;SDS011;45412;54.472;18.464;2022-08-04T05:53:00;10.50;;;3.40;;
59587;SDS011;45412;54.472;18.464;2022-08-04T05:55:49;9.80;;;3.30;;
59587;SDS011;45412;54.472;18.464;2022-08-04T05:58:45;8.50;;;3.50;;
59587;SDS011;45412;54.472;18.464;2022-08-04T06:01:33;11.10;;;3.40;;
59587;SDS011;45412;54.472;18.464;2022-08-04T06:04:45;11.70;;;3.40;;
59587;SDS011;45412;54.472;18.464;2022-08-04T06:07:36;12.10;;;3.10;;
59587;SDS011;45412;54.472;18.464;2022-08-04T06:10:45;9.70;;;2.80;;
59587;SDS011;45412;54.472;18.464;2022-08-04T06:13:49;10.30;;;3.30;;
59587;SDS011;45412;54.472;18.464;2022-08-04T06:16:42;9.10;;;2.80;;
59587;SDS011;45412;54.472;18.464;2022-08-04T06:19:39;15.00;;;3.30;;
59587;SDS011;45412;54.472;18.464;2022-08-04T06:22:53;8.80;;;2.80;;
59587;SDS011;45412;54.472;18.464;2022-08-04T06:25:52;10.00;;;2.90;;
59587;SDS011;45412;54.472;18.464;2022-08-04T06:28:44;10.20;;;3.10;;
59587;SDS011;45412;54.472;18.464;2022-08-04T06:31:36;11.50;;;3.70;;
59587;SDS011;45412;54.472;18.464;2022-08-04T06:35:05;10.00;;;2.70;;
59587;SDS011;45412;54.472;18.464;2022-08-04T06:37:55;8.70;;;3.00;;
59587;SDS011;45412;54.472;18.464;2022-08-04T06:40:47;14.90;;;3.50;;
59587;SDS011;45412;54.472;18.464;2022-08-04T06:43:35;9.30;;;2.90;;
59587;SDS011;45412;54.472;18.464;2022-08-04T06:46:34;12.40;;;3.00;;
59587;SDS011;45412;54.472;18.464;2022-08-04T06:49:25;9.60;;;2.60;;
59587;SDS011;45412;54.472;18.464;2022-08-04T06:52:14;12.50;;;2.70;;
59587;SDS011;45412;54.472;18.464;2022-08-04T06:55:06;10.80;;;3.00;;
59587;SDS011;45412;54.472;18.464;2022-08-04T06:57:54;7.60;;;2.70;;
59587;SDS011;45412;54.472;18.464;2022-08-04T07:00:49;9.50;;;2.80;;
59587;SDS011;45412;54.472;18.464;2022-08-04T07:03:38;9.30;;;2.70;;
59587;SDS011;45412;54.472;18.464;2022-08-04T07:06:26;9.90;;;3.20;;
59587;SDS011;45412;54.472;18.464;2022-08-04T07:09:14;7.30;;;2.50;;
59587;SDS011;45412;54.472;18.464;2022-08-04T07:12:03;9.00;;;2.70;;
59587;SDS011;45412;54.472;18.464;2022-08-04T07:14:54;7.60;;;2.50;;
59587;SDS011;45412;54.472;18.464;2022-08-04T07:17:44;11.60;;;2.70;;
59587;SDS011;45412;54.472;18.464;2022-08-04T07:20:40;7.50;;;2.50;;
59587;SDS011;45412;54.472;18.464;2022-08-04T07:23:30;6.80;;;2.10;;
59587;SDS011;45412;54.472;18.464;2022-08-04T07:26:18;9.80;;;2.30;;
59587;SDS011;45412;54.472;18.464;2022-08-04T07:29:10;7.90;;;2.60;;
59587;SDS011;45412;54.472;18.464;2022-08-04T07:31:58;9.20;;;2.30;;
59587;SDS011;45412;54.472;18.464;2022-08-04T07:34:48;6.80;;;2.30;;
59587;SDS011;45412;54.472;18.464;2022-08-04T07:37:39;6.20;;;2.20;;
59587;SDS011;45412;54.472;18.464;2022-08-04T07:40:28;8.10;;;2.30;;
59587;SDS011;45412;54.472;18.464;2022-08-04T07:43:17;9.70;;;2.50;;
59587;SDS011;45412;54.472;18.464;2022-08-04T07:46:05;6.70;;;2.30;;
59587;SDS011;45412;54.472;18.464;2022-08-04T07:48:54;8.50;;;2.60;;
59587;SDS011;45412;54.472;18.464;2022-08-04T07:51:42;6.90;;;2.20;;
59587;SDS011;45412;54.472;18.464;2022-08-04T07:54:30;8.10;;;2.30;;
59587;SDS011;45412;54.472;18.464;2022-08-04T07:57:20;7.40;;;2.10;;
59587;SDS011;45412;54.472;18.464;2022-08-04T08:00:29;7.00;;;2.50;;
59587;SDS011;45412;54.472;18.464;2022-08-04T08:03:17;9.00;;;2.40;;
59587;SDS011;45412;54.472;18.464;2022-08-04T08:06:08;9.20;;;2.20;;
59587;SDS011;45412;54.472;18.464;2022-08-04T08:09:18;6.50;;;2.30;;
59587;SDS011;45412;54.472;18.464;2022-08-04T08:12:10;8.20;;;2.30;;
59587;SDS011;45412;54.472;18.464;2022-08-04T08:15:19;8.30;;;2.30;;
59587;SDS011;45412;54.472;18.464;2022-08-04T08:18:07;7.20;;;2.00;;
59587;SDS011;45412;54.472;18.464;2022-08-04T08:20:56;7.50;;;2.10;;
59587;SDS011;45412;54.472;18.464;2022-08-04T08:23:44;7.80;;;2.00;;
59587;SDS011;45412;54.472;18.464;2022-08-04T08:26:33;7.60;;;2.10;;
59587;SDS011;45412;54.472;18.464;2022-08-04T08:29:24;7.20;;;2.10;;
59587;SDS011;45412;54.472;18.464;2022-08-04T08:32:13;8.20;;;2.70;;
59587;SDS011;45412;54.472;18.464;2022-08-04T08:35:02;8.80;;;2.10;;
59587;SDS011;45412;54.472;18.464;2022-08-04T08:37:56;7.80;;;1.90;;
59587;SDS011;45412;54.472;18.464;2022-08-04T08:40:54;7.40;;;2.40;;
59587;SDS011;45412;54.472;18.464;2022-08-04T08:47:40;6.40;;;1.90;;
59587;SDS011;45412;54.472;18.464;2022-08-04T08:54:27;8.70;;;2.10;;
59587;SDS011;45412;54.472;18.464;2022-08-04T09:00:58;8.20;;;2.10;;
59587;SDS011;45412;54.472;18.464;2022-08-04T09:17:02;7.40;;;2.00;;
59587;SDS011;45412;54.472;18.464;2022-08-04T09:20:15;6.30;;;2.10;;
59587;SDS011;45412;54.472;18.464;2022-08-04T09:23:23;7.10;;;2.20;;
59587;SDS011;45412;54.472;18.464;2022-08-04T09:26:52;8.30;;;2.00;;
59587;SDS011;45412;54.472;18.464;2022-08-04T09:29:52;6.30;;;2.00;;
59587;SDS011;45412;54.472;18.464;2022-08-04T09:36:19;7.80;;;1.80;;
59587;SDS011;45412;54.472;18.464;2022-08-04T09:39:36;5.60;;;2.20;;
59587;SDS011;45412;54.472;18.464;2022-08-04T09:45:59;7.20;;;2.00;;
59587;SDS011;45412;54.472;18.464;2022-08-04T09:49:30;7.80;;;2.10;;
59587;SDS011;45412;54.472;18.464;2022-08-04T10:02:06;6.80;;;2.20;;
59587;SDS011;45412;54.472;18.464;2022-08-04T10:04:58;6.80;;;2.00;;
59587;SDS011;45412;54.472;18.464;2022-08-04T10:22:05;14.00;;;2.80;;
59587;SDS011;45412;54.472;18.464;2022-08-04T10:28:55;8.20;;;2.10;;
59587;SDS011;45412;54.472;18.464;2022-08-04T10:32:03;9.00;;;2.70;;
59587;SDS011;45412;54.472;18.464;2022-08-04T10:38:30;7.50;;;2.40;;
59587;SDS011;45412;54.472;18.464;2022-08-04T10:42:23;7.90;;;2.30;;
59587;SDS011;45412;54.472;18.464;2022-08-04T10:45:23;10.90;;;2.90;;
59587;SDS011;45412;54.472;18.464;2022-08-04T10:48:24;8.70;;;3.00;;
59587;SDS011;45412;54.472;18.464;2022-08-04T10:58:10;6.80;;;2.40;;
59587;SDS011;45412;54.472;18.464;2022-08-04T11:01:26;7.50;;;2.50;;
59587;SDS011;45412;54.472;18.464;2022-08-04T11:04:47;8.00;;;2.20;;
59587;SDS011;45412;54.472;18.464;2022-08-04T11:07:44;8.30;;;3.70;;
59587;SDS011;45412;54.472;18.464;2022-08-04T11:10:49;7.30;;;3.20;;
59587;SDS011;45412;54.472;18.464;2022-08-04T11:17:08;6.90;;;2.50;;
59587;SDS011;45412;54.472;18.464;2022-08-04T11:24:10;6.10;;;2.50;;
59587;SDS011;45412;54.472;18.464;2022-08-04T11:27:32;8.30;;;2.50;;
59587;SDS011;45412;54.472;18.464;2022-08-04T11:30:31;6.90;;;2.70;;
59587;SDS011;45412;54.472;18.464;2022-08-04T11:33:55;10.40;;;2.50;;
59587;SDS011;45412;54.472;18.464;2022-08-04T11:37:10;7.10;;;2.60;;
59587;SDS011;45412;54.472;18.464;2022-08-04T11:40:55;8.60;;;2.90;;
59587;SDS011;45412;54.472;18.464;2022-08-04T11:43:53;10.80;;;3.30;;
59587;SDS011;45412;54.472;18.464;2022-08-04T11:46:53;8.30;;;3.00;;
59587;SDS011;45412;54.472;18.464;2022-08-04T11:52:58;9.40;;;3.10;;
59587;SDS011;45412;54.472;18.464;2022-08-04T11:55:49;9.70;;;3.00;;
59587;SDS011;45412;54.472;18.464;2022-08-04T11:58:57;7.40;;;3.20;;
59587;SDS011;45412;54.472;18.464;2022-08-04T12:05:08;10.10;;;3.50;;
59587;SDS011;45412;54.472;18.464;2022-08-04T12:08:42;11.90;;;3.60;;
59587;SDS011;45412;54.472;18.464;2022-08-04T12:12:01;7.30;;;3.20;;
59587;SDS011;45412;54.472;18.464;2022-08-04T12:15:28;7.70;;;3.30;;
59587;SDS011;45412;54.472;18.464;2022-08-04T12:18:26;8.60;;;3.50;;
59587;SDS011;45412;54.472;18.464;2022-08-04T12:21:22;8.20;;;3.50;;
59587;SDS011;45412;54.472;18.464;2022-08-04T12:24:19;8.40;;;3.60;;
59587;SDS011;45412;54.472;18.464;2022-08-04T12:27:45;11.00;;;4.30;;
59587;SDS011;45412;54.472;18.464;2022-08-04T12:30:44;9.50;;;3.90;;
59587;SDS011;45412;54.472;18.464;2022-08-04T12:34:11;9.10;;;4.40;;
59587;SDS011;45412;54.472;18.464;2022-08-04T12:40:38;9.10;;;4.20;;
59587;SDS011;45412;54.472;18.464;2022-08-04T12:43:40;12.00;;;3.90;;
59587;SDS011;45412;54.472;18.464;2022-08-04T12:46:29;10.40;;;4.90;;
59587;SDS011;45412;54.472;18.464;2022-08-04T12:49:18;9.60;;;3.80;;
59587;SDS011;45412;54.472;18.464;2022-08-04T12:52:10;8.80;;;4.50;;
59587;SDS011;45412;54.472;18.464;2022-08-04T12:55:01;8.70;;;3.90;;
59587;SDS011;45412;54.472;18.464;2022-08-04T12:57:52;8.30;;;3.90;;
59587;SDS011;45412;54.472;18.464;2022-08-04T13:00:42;7.70;;;3.70;;
59587;SDS011;45412;54.472;18.464;2022-08-04T13:03:51;13.40;;;4.00;;
59587;SDS011;45412;54.472;18.464;2022-08-04T13:06:42;11.30;;;4.10;;
59587;SDS011;45412;54.472;18.464;2022-08-04T13:09:32;17.30;;;8.40;;
59587;SDS011;45412;54.472;18.464;2022-08-04T13:12:24;10.30;;;5.60;;
59587;SDS011;45412;54.472;18.464;2022-08-04T13:15:20;13.50;;;6.60;;
59587;SDS011;45412;54.472;18.464;2022-08-04T13:18:10;12.60;;;6.00;;
59587;SDS011;45412;54.472;18.464;2022-08-04T13:24:13;13.80;;;5.40;;
59587;SDS011;45412;54.472;18.464;2022-08-04T13:27:17;8.50;;;4.50;;
59587;SDS011;45412;54.472;18.464;2022-08-04T13:30:08;10.80;;;4.50;;
59587;SDS011;45412;54.472;18.464;2022-08-04T13:33:09;10.40;;;4.60;;
59587;SDS011;45412;54.472;18.464;2022-08-04T13:35:59;8.90;;;5.50;;
59587;SDS011;45412;54.472;18.464;2022-08-04T13:38:53;8.90;;;4.30;;
59587;SDS011;45412;54.472;18.464;2022-08-04T13:41:54;10.80;;;5.60;;
59587;SDS011;45412;54.472;18.464;2022-08-04T13:44:51;8.90;;;4.20;;
59587;SDS011;45412;54.472;18.464;2022-08-04T13:47:43;10.70;;;4.20;;
59587;SDS011;45412;54.472;18.464;2022-08-04T13:50:35;8.60;;;4.20;;
59587;SDS011;45412;54.472;18.464;2022-08-04T13:53:24;11.90;;;4.40;;
59587;SDS011;45412;54.472;18.464;2022-08-04T13:56:17;8.10;;;4.30;;
59587;SDS011;45412;54.472;18.464;2022-08-04T13:59:10;8.80;;;5.40;;
59587;SDS011;45412;54.472;18.464;2022-08-04T14:02:07;10.20;;;4.70;;
59587;SDS011;45412;54.472;18.464;2022-08-04T14:05:08;15.40;;;6.40;;
59587;SDS011;45412;54.472;18.464;2022-08-04T14:08:08;11.70;;;5.90;;
59587;SDS011;45412;54.472;18.464;2022-08-04T14:11:01;11.30;;;5.70;;
59587;SDS011;45412;54.472;18.464;2022-08-04T14:13:52;8.70;;;4.20;;
59587;SDS011;45412;54.472;18.464;2022-08-04T14:20:06;8.60;;;4.40;;
59587;SDS011;45412;54.472;18.464;2022-08-04T14:22:59;15.70;;;4.70;;
59587;SDS011;45412;54.472;18.464;2022-08-04T14:25:57;10.90;;;6.10;;
59587;SDS011;45412;54.472;18.464;2022-08-04T14:28:50;12.20;;;4.50;;
59587;SDS011;45412;54.472;18.464;2022-08-04T14:32:05;11.40;;;5.10;;
59587;SDS011;45412;54.472;18.464;2022-08-04T14:35:09;8.90;;;4.40;;
59587;SDS011;45412;54.472;18.464;2022-08-04T14:38:02;9.40;;;4.50;;
59587;SDS011;45412;54.472;18.464;2022-08-04T14:41:01;11.60;;;4.50;;
59587;SDS011;45412;54.472;18.464;2022-08-04T14:44:03;9.00;;;4.20;;
59587;SDS011;45412;54.472;18.464;2022-08-04T14:47:05;8.50;;;4.00;;
59587;SDS011;45412;54.472;18.464;2022-08-04T14:50:03;8.60;;;4.00;;
59587;SDS011;45412;54.472;18.464;2022-08-04T14:53:09;7.80;;;3.60;;
59587;SDS011;45412;54.472;18.464;2022-08-04T14:56:14;7.50;;;3.80;;
59587;SDS011;45412;54.472;18.464;2022-08-04T14:59:41;9.40;;;4.50;;
59587;SDS011;45412;54.472;18.464;2022-08-04T15:02:55;7.90;;;4.50;;
59587;SDS011;45412;54.472;18.464;2022-08-04T15:06:06;8.40;;;4.10;;
59587;SDS011;45412;54.472;18.464;2022-08-04T15:09:08;10.10;;;6.10;;
59587;SDS011;45412;54.472;18.464;2022-08-04T15:12:07;13.90;;;4.50;;
59587;SDS011;45412;54.472;18.464;2022-08-04T15:15:23;11.80;;;5.30;;
59587;SDS011;45412;54.472;18.464;2022-08-04T15:18:24;9.40;;;4.80;;
59587;SDS011;45412;54.472;18.464;2022-08-04T15:21:17;10.80;;;4.80;;
59587;SDS011;45412;54.472;18.464;2022-08-04T15:24:05;7.40;;;4.10;;
59587;SDS011;45412;54.472;18.464;2022-08-04T15:26:55;11.10;;;5.20;;
59587;SDS011;45412;54.472;18.464;2022-08-04T15:29:50;10.60;;;5.40;;
59587;SDS011;45412;54.472;18.464;2022-08-04T15:32:53;8.20;;;4.30;;
59587;SDS011;45412;54.472;18.464;2022-08-04T15:35:47;7.90;;;4.50;;
59587;SDS011;45412;54.472;18.464;2022-08-04T15:45:22;9.80;;;5.20;;
59587;SDS011;45412;54.472;18.464;2022-08-04T15:48:32;9.50;;;5.10;;
59587;SDS011;45412;54.472;18.464;2022-08-04T15:51:25;8.50;;;4.50;;
59587;SDS011;45412;54.472;18.464;2022-08-04T15:54:22;8.00;;;4.30;;
59587;SDS011;45412;54.472;18.464;2022-08-04T16:03:50;10.50;;;5.90;;
59587;SDS011;45412;54.472;18.464;2022-08-04T16:06:50;9.80;;;4.60;;
59587;SDS011;45412;54.472;18.464;2022-08-04T16:09:52;10.80;;;5.30;;
59587;SDS011;45412;54.472;18.464;2022-08-04T16:12:53;10.60;;;6.60;;
59587;SDS011;45412;54.472;18.464;2022-08-04T16:15:51;9.20;;;5.30;;
59587;SDS011;45412;54.472;18.464;2022-08-04T16:18:41;10.30;;;4.80;;
59587;SDS011;45412;54.472;18.464;2022-08-04T16:21:32;9.30;;;4.60;;
59587;SDS011;45412;54.472;18.464;2022-08-04T16:24:36;7.60;;;4.30;;
59587;SDS011;45412;54.472;18.464;2022-08-04T16:27:43;10.10;;;5.00;;
59587;SDS011;45412;54.472;18.464;2022-08-04T16:30:39;9.70;;;4.70;;
59587;SDS011;45412;54.472;18.464;2022-08-04T16:33:32;9.90;;;4.60;;
59587;SDS011;45412;54.472;18.464;2022-08-04T16:36:54;10.10;;;5.20;;
59587;SDS011;45412;54.472;18.464;2022-08-04T16:39:46;10.10;;;4.90;;
59587;SDS011;45412;54.472;18.464;2022-08-04T16:42:37;8.90;;;5.30;;
59587;SDS011;45412;54.472;18.464;2022-08-04T16:45:59;10.00;;;4.90;;
59587;SDS011;45412;54.472;18.464;2022-08-04T16:49:04;9.50;;;5.30;;
59587;SDS011;45412;54.472;18.464;2022-08-04T16:51:53;11.30;;;5.00;;
59587;SDS011;45412;54.472;18.464;2022-08-04T16:54:48;10.60;;;4.80;;
59587;SDS011;45412;54.472;18.464;2022-08-04T16:57:37;8.80;;;5.10;;
59587;SDS011;45412;54.472;18.464;2022-08-04T17:00:34;9.70;;;5.30;;
59587;SDS011;45412;54.472;18.464;2022-08-04T17:03:24;10.00;;;5.70;;
59587;SDS011;45412;54.472;18.464;2022-08-04T17:06:13;9.20;;;5.60;;
59587;SDS011;45412;54.472;18.464;2022-08-04T17:09:10;10.70;;;5.30;;
59587;SDS011;45412;54.472;18.464;2022-08-04T17:12:01;9.50;;;6.00;;
59587;SDS011;45412;54.472;18.464;2022-08-04T17:14:49;8.60;;;5.20;;
59587;SDS011;45412;54.472;18.464;2022-08-04T17:17:40;10.20;;;5.40;;
59587;SDS011;45412;54.472;18.464;2022-08-04T17:20:48;9.50;;;5.40;;
59587;SDS011;45412;54.472;18.464;2022-08-04T17:23:57;12.40;;;8.10;;
59587;SDS011;45412;54.472;18.464;2022-08-04T17:27:04;11.30;;;7.60;;
59587;SDS011;45412;54.472;18.464;2022-08-04T17:30:26;10.70;;;7.30;;
59587;SDS011;45412;54.472;18.464;2022-08-04T17:33:17;10.30;;;5.80;;
59587;SDS011;45412;54.472;18.464;2022-08-04T17:36:08;19.10;;;14.40;;
59587;SDS011;45412;54.472;18.464;2022-08-04T17:39:02;10.30;;;5.20;;
59587;SDS011;45412;54.472;18.464;2022-08-04T17:42:28;9.80;;;5.70;;
59587;SDS011;45412;54.472;18.464;2022-08-04T17:45:19;11.40;;;6.50;;
59587;SDS011;45412;54.472;18.464;2022-08-04T17:48:29;11.50;;;6.20;;
59587;SDS011;45412;54.472;18.464;2022-08-04T17:51:19;12.60;;;6.80;;
59587;SDS011;45412;54.472;18.464;2022-08-04T17:54:34;12.00;;;7.70;;
59587;SDS011;45412;54.472;18.464;2022-08-04T17:57:27;11.20;;;6.30;;
59587;SDS011;45412;54.472;18.464;2022-08-04T18:00:26;11.70;;;6.00;;
59587;SDS011;45412;54.472;18.464;2022-08-04T18:04:27;10.80;;;5.60;;
59587;SDS011;45412;54.472;18.464;2022-08-04T18:07:49;10.20;;;6.10;;
59587;SDS011;45412;54.472;18.464;2022-08-04T18:11:00;11.70;;;6.00;;
59587;SDS011;45412;54.472;18.464;2022-08-04T18:13:52;11.70;;;6.10;;
59587;SDS011;45412;54.472;18.464;2022-08-04T18:16:44;14.20;;;6.30;;
59587;SDS011;45412;54.472;18.464;2022-08-04T18:19:32;11.90;;;6.20;;
59587;SDS011;45412;54.472;18.464;2022-08-04T18:22:35;11.10;;;6.30;;
59587;SDS011;45412;54.472;18.464;2022-08-04T18:25:24;11.00;;;6.30;;
59587;SDS011;45412;54.472;18.464;2022-08-04T18:28:33;16.80;;;6.90;;
59587;SDS011;45412;54.472;18.464;2022-08-04T18:31:22;13.00;;;6.40;;
59587;SDS011;45412;54.472;18.464;2022-08-04T18:34:14;13.60;;;6.90;;
59587;SDS011;45412;54.472;18.464;2022-08-04T18:37:09;11.60;;;6.50;;
59587;SDS011;45412;54.472;18.464;2022-08-04T18:40:26;12.40;;;6.70;;
59587;SDS011;45412;54.472;18.464;2022-08-04T18:43:28;10.10;;;6.70;;
59587;SDS011;45412;54.472;18.464;2022-08-04T18:46:37;11.10;;;5.80;;
59587;SDS011;45412;54.472;18.464;2022-08-04T18:49:39;13.90;;;6.50;;
59587;SDS011;45412;54.472;18.464;2022-08-04T18:52:49;11.10;;;6.50;;
59587;SDS011;45412;54.472;18.464;2022-08-04T18:55:41;11.60;;;6.80;;
59587;SDS011;45412;54.472;18.464;2022-08-04T18:58:44;13.70;;;6.60;;
59587;SDS011;45412;54.472;18.464;2022-08-04T19:01:34;14.70;;;6.50;;
59587;SDS011;45412;54.472;18.464;2022-08-04T19:04:44;9.90;;;6.40;;
59587;SDS011;45412;54.472;18.464;2022-08-04T19:07:52;12.60;;;6.80;;
59587;SDS011;45412;54.472;18.464;2022-08-04T19:10:58;10.80;;;6.50;;
59587;SDS011;45412;54.472;18.464;2022-08-04T19:13:46;11.40;;;6.50;;
59587;SDS011;45412;54.472;18.464;2022-08-04T19:16:46;13.40;;;6.70;;
59587;SDS011;45412;54.472;18.464;2022-08-04T19:19:35;11.50;;;6.50;;
59587;SDS011;45412;54.472;18.464;2022-08-04T19:22:36;11.60;;;6.60;;
59587;SDS011;45412;54.472;18.464;2022-08-04T19:25:45;13.90;;;6.50;;
59587;SDS011;45412;54.472;18.464;2022-08-04T19:28:51;11.50;;;6.50;;
59587;SDS011;45412;54.472;18.464;2022-08-04T19:31:40;12.30;;;6.60;;
59587;SDS011;45412;54.472;18.464;2022-08-04T19:34:29;14.20;;;7.00;;
59587;SDS011;45412;54.472;18.464;2022-08-04T19:37:29;12.80;;;6.80;;
59587;SDS011;45412;54.472;18.464;2022-08-04T19:40:39;13.60;;;7.50;;
59587;SDS011;45412;54.472;18.464;2022-08-04T19:43:39;16.10;;;7.10;;
59587;SDS011;45412;54.472;18.464;2022-08-04T19:46:30;15.10;;;7.60;;
59587;SDS011;45412;54.472;18.464;2022-08-04T19:49:21;11.70;;;7.00;;
59587;SDS011;45412;54.472;18.464;2022-08-04T19:52:29;13.50;;;7.70;;
59587;SDS011;45412;54.472;18.464;2022-08-04T19:55:35;13.70;;;7.60;;
59587;SDS011;45412;54.472;18.464;2022-08-04T19:58:28;13.10;;;7.80;;
59587;SDS011;45412;54.472;18.464;2022-08-04T20:01:17;11.90;;;7.90;;
59587;SDS011;45412;54.472;18.464;2022-08-04T20:04:26;13.20;;;7.60;;
59587;SDS011;45412;54.472;18.464;2022-08-04T20:07:17;16.40;;;8.30;;
59587;SDS011;45412;54.472;18.464;2022-08-04T20:10:07;13.60;;;7.80;;
59587;SDS011;45412;54.472;18.464;2022-08-04T20:12:59;14.90;;;7.80;;
59587;SDS011;45412;54.472;18.464;2022-08-04T20:15:47;13.70;;;8.00;;
59587;SDS011;45412;54.472;18.464;2022-08-04T20:18:49;13.20;;;8.10;;
59587;SDS011;45412;54.472;18.464;2022-08-04T20:21:58;13.40;;;8.20;;
59587;SDS011;45412;54.472;18.464;2022-08-04T20:24:49;12.80;;;7.90;;
59587;SDS011;45412;54.472;18.464;2022-08-04T20:27:57;13.30;;;7.70;;
59587;SDS011;45412;54.472;18.464;2022-08-04T20:30:47;13.70;;;8.40;;
59587;SDS011;45412;54.472;18.464;2022-08-04T20:33:41;12.30;;;8.00;;
59587;SDS011;45412;54.472;18.464;2022-08-04T20:36:37;12.50;;;8.50;;
59587;SDS011;45412;54.472;18.464;2022-08-04T20:39:39;14.60;;;7.90;;
59587;SDS011;45412;54.472;18.464;2022-08-04T20:42:53;24.70;;;8.70;;
59587;SDS011;45412;54.472;18.464;2022-08-04T20:45:44;14.50;;;8.10;;
59587;SDS011;45412;54.472;18.464;2022-08-04T20:48:45;12.70;;;7.90;;
59587;SDS011;45412;54.472;18.464;2022-08-04T20:51:34;13.70;;;8.20;;
59587;SDS011;45412;54.472;18.464;2022-08-04T20:54:26;13.70;;;7.90;;
59587;SDS011;45412;54.472;18.464;2022-08-04T20:57:16;13.50;;;7.80;;
59587;SDS011;45412;54.472;18.464;2022-08-04T21:00:25;14.00;;;8.40;;
59587;SDS011;45412;54.472;18.464;2022-08-04T21:03:16;13.60;;;8.10;;
59587;SDS011;45412;54.472;18.464;2022-08-04T21:06:04;15.10;;;7.80;;
59587;SDS011;45412;54.472;18.464;2022-08-04T21:08:53;11.90;;;8.00;;
59587;SDS011;45412;54.472;18.464;2022-08-04T21:11:44;13.10;;;7.70;;
59587;SDS011;45412;54.472;18.464;2022-08-04T21:14:36;12.90;;;8.20;;
59587;SDS011;45412;54.472;18.464;2022-08-04T21:17:25;14.20;;;9.00;;
59587;SDS011;45412;54.472;18.464;2022-08-04T21:20:33;14.70;;;8.20;;
59587;SDS011;45412;54.472;18.464;2022-08-04T21:23:28;13.60;;;8.70;;
59587;SDS011;45412;54.472;18.464;2022-08-04T21:26:23;14.70;;;9.10;;
59587;SDS011;45412;54.472;18.464;2022-08-04T21:29:12;16.00;;;8.90;;
59587;SDS011;45412;54.472;18.464;2022-08-04T21:32:04;11.30;;;8.20;;
59587;SDS011;45412;54.472;18.464;2022-08-04T21:34:54;14.20;;;8.40;;
59587;SDS011;45412;54.472;18.464;2022-08-04T21:37:44;15.80;;;8.80;;
59587;SDS011;45412;54.472;18.464;2022-08-04T21:40:51;14.70;;;8.70;;
59587;SDS011;45412;54.472;18.464;2022-08-04T21:43:40;12.90;;;8.50;;
59587;SDS011;45412;54.472;18.464;2022-08-04T21:46:30;13.30;;;9.40;;
59587;SDS011;45412;54.472;18.464;2022-08-04T21:49:18;13.40;;;8.70;;